createdAt,value
2019-05-16T00:00:49.795Z,0.00
2019-05-16T00:01:49.877Z,0.00
2019-05-16T00:02:50.054Z,0.00
2019-05-16T00:03:50.220Z,0.00
2019-05-16T00:04:50.402Z,0.00
2019-05-16T00:05:54.365Z,0.00
2019-05-16T00:06:51.701Z,0.00
2019-05-16T00:07:50.824Z,0.00
2019-05-16T00:08:51.000Z,0.00
2019-05-16T00:09:51.191Z,0.00
2019-05-16T00:10:51.357Z,0.00
2019-05-16T00:11:51.555Z,0.00
2019-05-16T00:12:51.713Z,0.00
2019-05-16T00:13:51.873Z,0.00
2019-05-16T00:14:52.033Z,0.00
2019-05-16T00:15:52.213Z,0.00
2019-05-16T00:16:52.364Z,0.00
2019-05-16T00:17:52.524Z,0.00
2019-05-16T00:18:53.675Z,0.00
2019-05-16T00:19:52.797Z,0.00
2019-05-16T00:20:52.945Z,0.00
2019-05-16T00:21:53.121Z,0.00
2019-05-16T00:22:53.324Z,0.00
2019-05-16T00:23:53.448Z,0.00
2019-05-16T00:24:53.602Z,0.00
2019-05-16T00:25:53.767Z,0.00
2019-05-16T00:26:53.939Z,0.00
2019-05-16T00:27:54.132Z,0.00
2019-05-16T00:28:54.280Z,0.00
2019-05-16T00:29:54.415Z,0.00
2019-05-16T00:30:54.576Z,0.00
2019-05-16T00:31:54.720Z,0.00
2019-05-16T00:32:54.912Z,0.00
2019-05-16T00:33:55.080Z,0.00
2019-05-16T00:34:55.256Z,0.00
2019-05-16T00:36:02.522Z,0.00
2019-05-16T00:36:58.172Z,0.00
2019-05-16T00:37:55.859Z,0.00
2019-05-16T00:38:57.731Z,0.00
2019-05-16T00:39:56.148Z,0.00
2019-05-16T00:40:56.343Z,0.00
2019-05-16T00:41:58.371Z,0.00
2019-05-16T00:42:58.778Z,0.00
2019-05-16T00:43:57.711Z,0.00
2019-05-16T00:44:58.504Z,0.00
2019-05-16T00:45:58.925Z,0.00
2019-05-16T00:46:58.373Z,0.00
2019-05-16T00:47:58.476Z,0.00
2019-05-16T00:48:59.016Z,0.00
2019-05-16T00:49:58.837Z,0.00
2019-05-16T00:50:58.407Z,0.00
2019-05-16T00:51:59.128Z,0.00
2019-05-16T00:52:58.949Z,0.00
2019-05-16T00:53:59.407Z,0.00
2019-05-16T00:54:58.577Z,0.00
2019-05-16T00:55:58.765Z,0.00
2019-05-16T00:56:58.962Z,0.00
2019-05-16T00:57:59.146Z,0.00
2019-05-16T00:58:59.330Z,0.00
2019-05-16T00:59:59.533Z,0.00
2019-05-16T01:00:59.674Z,0.00
2019-05-16T01:01:59.864Z,0.00
2019-05-16T01:03:00.051Z,0.00
2019-05-16T01:04:00.251Z,0.00
2019-05-16T01:05:00.438Z,0.00
2019-05-16T01:06:00.660Z,0.00
2019-05-16T01:07:01.789Z,0.00
2019-05-16T01:08:02.093Z,0.00
2019-05-16T01:09:01.251Z,0.00
2019-05-16T01:10:01.447Z,0.00
2019-05-16T01:11:01.675Z,0.00
2019-05-16T01:12:01.769Z,0.00
2019-05-16T01:13:01.987Z,0.00
2019-05-16T01:14:02.167Z,0.00
2019-05-16T01:15:02.425Z,0.00
2019-05-16T01:16:02.620Z,0.00
2019-05-16T01:17:02.828Z,0.00
2019-05-16T01:18:02.994Z,0.00
2019-05-16T01:19:03.167Z,0.00
2019-05-16T01:20:03.387Z,0.00
2019-05-16T01:21:03.577Z,0.00
2019-05-16T01:22:03.771Z,0.00
2019-05-16T01:23:03.933Z,0.00
2019-05-16T01:24:04.100Z,0.00
2019-05-16T01:25:04.320Z,0.00
2019-05-16T01:26:04.484Z,0.00
2019-05-16T01:27:04.658Z,0.00
2019-05-16T01:28:04.840Z,0.00
2019-05-16T01:29:05.033Z,0.00
2019-05-16T01:30:05.273Z,0.00
2019-05-16T01:31:05.463Z,0.00
2019-05-16T01:32:05.641Z,0.00
2019-05-16T01:33:05.826Z,0.00
2019-05-16T01:34:07.801Z,0.00
2019-05-16T01:35:08.207Z,0.00
2019-05-16T01:36:08.792Z,0.00
2019-05-16T01:37:08.266Z,0.00
2019-05-16T01:38:08.538Z,0.00
2019-05-16T01:39:07.961Z,0.00
2019-05-16T01:40:08.232Z,0.00
2019-05-16T01:41:08.743Z,0.00
2019-05-16T01:42:08.405Z,0.00
2019-05-16T01:43:08.616Z,0.00
2019-05-16T01:44:08.717Z,0.00
2019-05-16T01:45:08.248Z,0.00
2019-05-16T01:46:09.065Z,0.00
2019-05-16T01:47:08.978Z,0.00
2019-05-16T01:48:09.394Z,0.00
2019-05-16T01:49:08.541Z,0.00
2019-05-16T01:50:08.972Z,0.00
2019-05-16T01:51:09.920Z,0.00
2019-05-16T01:52:09.081Z,0.00
2019-05-16T01:53:09.283Z,0.00
2019-05-16T01:54:09.468Z,0.00
2019-05-16T01:55:09.666Z,0.00
2019-05-16T01:56:09.841Z,0.00
2019-05-16T01:57:10.046Z,0.00
2019-05-16T01:58:10.227Z,0.00
2019-05-16T01:59:10.395Z,0.00
2019-05-16T02:00:10.564Z,0.00
2019-05-16T02:01:15.187Z,0.00
2019-05-16T02:02:12.917Z,0.00
2019-05-16T02:03:11.032Z,0.00
2019-05-16T02:04:12.237Z,0.00
2019-05-16T02:05:12.455Z,0.00
2019-05-16T02:06:11.611Z,0.00
2019-05-16T02:07:11.824Z,0.00
2019-05-16T02:08:12.000Z,0.00
2019-05-16T02:09:12.173Z,0.00
2019-05-16T02:10:12.384Z,0.00
2019-05-16T02:11:12.579Z,0.00
2019-05-16T02:12:12.769Z,0.00
2019-05-16T02:13:12.979Z,0.00
2019-05-16T02:14:13.183Z,0.00
2019-05-16T02:15:13.377Z,0.00
2019-05-16T02:16:13.572Z,0.00
2019-05-16T02:17:13.761Z,0.00
2019-05-16T02:18:13.956Z,0.00
2019-05-16T02:19:14.164Z,0.00
2019-05-16T02:20:14.326Z,0.00
2019-05-16T02:21:14.522Z,0.00
2019-05-16T02:22:14.698Z,0.00
2019-05-16T02:23:14.863Z,0.00
2019-05-16T02:24:15.067Z,0.00
2019-05-16T02:25:15.245Z,0.00
2019-05-16T02:26:15.415Z,0.00
2019-05-16T02:27:15.562Z,0.00
2019-05-16T02:28:15.744Z,0.00
2019-05-16T02:29:15.914Z,0.00
2019-05-16T02:30:16.076Z,0.00
2019-05-16T02:31:16.254Z,0.00
2019-05-16T02:32:16.446Z,0.00
2019-05-16T02:33:16.616Z,0.00
2019-05-16T02:34:16.799Z,0.00
2019-05-16T02:35:16.994Z,0.00
2019-05-16T02:36:17.158Z,0.00
2019-05-16T02:37:28.800Z,0.00
2019-05-16T02:38:21.089Z,0.00
2019-05-16T02:39:21.221Z,0.00
2019-05-16T02:40:20.826Z,0.00
2019-05-16T02:41:21.345Z,0.00
2019-05-16T02:42:21.006Z,0.00
2019-05-16T02:43:25.294Z,0.00
2019-05-16T02:44:24.050Z,0.00
2019-05-16T02:45:21.238Z,0.00
2019-05-16T02:46:21.867Z,0.00
2019-05-16T02:47:21.023Z,0.00
2019-05-16T02:48:21.346Z,0.00
2019-05-16T02:49:21.670Z,0.00
2019-05-16T02:50:22.439Z,0.00
2019-05-16T02:51:21.339Z,0.00
2019-05-16T02:52:21.741Z,0.00
2019-05-16T02:53:22.531Z,0.00
2019-05-16T02:54:21.955Z,0.00
2019-05-16T02:55:21.967Z,0.00
2019-05-16T02:56:21.347Z,0.00
2019-05-16T02:57:22.001Z,0.00
2019-05-16T02:58:23.211Z,0.00
2019-05-16T02:59:22.286Z,0.00
2019-05-16T03:07:00.372Z,0.00
2019-05-16T03:07:41.813Z,0.00
2019-05-16T03:08:41.196Z,0.00
2019-05-16T03:09:41.019Z,0.00
2019-05-16T03:10:41.367Z,0.00
2019-05-16T03:11:41.945Z,0.00
2019-05-16T03:12:41.176Z,0.00
2019-05-16T03:13:42.280Z,0.00
2019-05-16T03:14:41.902Z,0.00
2019-05-16T03:15:40.779Z,0.00
2019-05-16T03:16:41.737Z,0.00
2019-05-16T03:17:40.909Z,0.00
2019-05-16T03:18:41.362Z,0.00
2019-05-16T03:19:41.929Z,0.00
2019-05-16T03:20:41.342Z,0.00
2019-05-16T03:21:41.288Z,0.00
2019-05-16T03:22:41.647Z,0.00
2019-05-16T03:23:41.958Z,0.00
2019-05-16T03:24:42.263Z,0.00
2019-05-16T03:25:42.133Z,0.00
2019-05-16T03:26:41.258Z,0.00
2019-05-16T03:27:41.773Z,0.00
2019-05-16T03:28:41.639Z,0.00
2019-05-16T03:29:42.044Z,0.00
2019-05-16T03:30:45.143Z,0.00
2019-05-16T03:31:45.208Z,0.00
2019-05-16T03:32:45.604Z,0.00
2019-05-16T03:33:56.302Z,0.00
2019-05-16T03:34:44.805Z,0.00
2019-05-16T03:35:44.983Z,0.00
2019-05-16T03:36:44.549Z,0.00
2019-05-16T03:37:55.207Z,0.00
2019-05-16T03:38:45.437Z,0.00
2019-05-16T03:39:43.614Z,0.00
2019-05-16T03:40:43.779Z,0.00
2019-05-16T03:41:43.940Z,0.00
2019-05-16T03:42:44.134Z,0.00
2019-05-16T03:43:44.328Z,0.00
2019-05-16T03:44:44.550Z,0.00
2019-05-16T03:45:44.757Z,0.00
2019-05-16T03:46:44.960Z,5.62
2019-05-16T03:47:45.139Z,5.62
2019-05-16T03:48:45.339Z,5.62
2019-05-16T03:49:45.530Z,5.62
2019-05-16T03:50:45.710Z,5.62
2019-05-16T03:51:45.887Z,5.62
2019-05-16T03:52:46.059Z,5.62
2019-05-16T03:53:46.241Z,5.62
2019-05-16T03:54:46.442Z,5.62
2019-05-16T03:55:46.631Z,5.62
2019-05-16T03:56:47.783Z,5.62
2019-05-16T03:57:46.969Z,5.62
2019-05-16T03:58:47.126Z,5.62
2019-05-16T03:59:47.292Z,5.62
2019-05-16T04:00:51.282Z,5.62
2019-05-16T04:01:51.094Z,5.62
2019-05-16T04:02:47.745Z,5.62
2019-05-16T04:03:50.792Z,5.62
2019-05-16T04:04:50.861Z,5.62
2019-05-16T04:05:52.120Z,5.62
2019-05-16T04:06:50.728Z,5.62
2019-05-16T04:07:53.147Z,5.62
2019-05-16T04:08:51.211Z,5.62
2019-05-16T04:09:50.767Z,11.25
2019-05-16T04:10:52.237Z,11.25
2019-05-16T04:11:51.038Z,11.25
2019-05-16T04:12:51.311Z,11.25
2019-05-16T04:13:50.979Z,11.25
2019-05-16T04:14:51.421Z,11.25
2019-05-16T04:15:52.461Z,11.25
2019-05-16T04:16:51.349Z,11.25
2019-05-16T04:17:51.344Z,11.25
2019-05-16T04:18:51.717Z,11.25
2019-05-16T04:19:51.048Z,16.88
2019-05-16T04:20:52.809Z,16.88
2019-05-16T04:21:52.012Z,16.88
2019-05-16T04:22:51.452Z,16.88
2019-05-16T04:23:52.269Z,16.88
2019-05-16T04:24:51.516Z,16.88
2019-05-16T04:25:52.657Z,16.88
2019-05-16T04:26:52.925Z,16.88
2019-05-16T04:27:52.101Z,16.88
2019-05-16T04:28:52.293Z,16.88
2019-05-16T04:29:52.447Z,16.88
2019-05-16T04:30:52.594Z,22.50
2019-05-16T04:31:52.778Z,22.50
2019-05-16T04:32:52.976Z,22.50
2019-05-16T04:33:53.116Z,22.50
2019-05-16T04:34:53.264Z,22.50
2019-05-16T04:35:53.437Z,22.50
2019-05-16T04:36:53.588Z,22.50
2019-05-16T04:37:53.791Z,22.50
2019-05-16T04:38:53.974Z,22.50
2019-05-16T04:39:54.159Z,22.50
2019-05-16T04:40:54.333Z,22.50
2019-05-16T04:41:54.514Z,22.50
2019-05-16T04:42:54.678Z,22.50
2019-05-16T04:43:54.893Z,22.50
2019-05-16T04:44:55.073Z,22.50
2019-05-16T04:45:56.226Z,22.50
2019-05-16T04:46:55.381Z,22.50
2019-05-16T04:47:55.568Z,22.50
2019-05-16T04:48:55.786Z,22.50
2019-05-16T04:49:55.949Z,22.50
2019-05-16T04:50:56.133Z,22.50
2019-05-16T04:51:56.355Z,22.50
2019-05-16T04:52:56.550Z,22.50
2019-05-16T04:53:56.794Z,22.50
2019-05-16T04:54:56.863Z,22.50
2019-05-16T04:55:57.063Z,28.12
2019-05-16T04:56:57.273Z,28.12
2019-05-16T04:57:57.457Z,28.12
2019-05-16T04:59:00.393Z,28.12
2019-05-16T04:59:57.779Z,28.12
2019-05-16T05:00:57.953Z,28.12
2019-05-16T05:02:01.619Z,28.12
2019-05-16T05:03:01.105Z,28.12
2019-05-16T05:04:09.675Z,28.12
2019-05-16T05:05:01.358Z,33.75
2019-05-16T05:06:01.287Z,33.75
2019-05-16T05:07:00.630Z,33.75
2019-05-16T05:08:01.500Z,33.75
2019-05-16T05:09:03.459Z,33.75
2019-05-16T05:10:00.969Z,33.75
2019-05-16T05:11:01.368Z,33.75
2019-05-16T05:12:04.316Z,33.75
2019-05-16T05:13:01.720Z,33.75
2019-05-16T05:14:01.554Z,33.75
2019-05-16T05:15:01.400Z,33.75
2019-05-16T05:16:01.911Z,33.75
2019-05-16T05:17:02.305Z,33.75
2019-05-16T05:18:02.282Z,33.75
2019-05-16T05:19:01.428Z,33.75
2019-05-16T05:20:01.581Z,33.75
2019-05-16T05:21:01.749Z,33.75
2019-05-16T05:22:01.900Z,33.75
2019-05-16T05:23:02.064Z,33.75
2019-05-16T05:24:02.200Z,33.75
2019-05-16T05:25:02.335Z,33.75
2019-05-16T05:26:02.519Z,33.75
2019-05-16T05:27:02.678Z,33.75
2019-05-16T05:28:02.849Z,33.75
2019-05-16T05:29:02.974Z,33.75
2019-05-16T05:30:03.168Z,39.38
2019-05-16T05:31:03.331Z,39.38
2019-05-16T05:32:04.731Z,39.38
2019-05-16T05:33:04.731Z,39.38
2019-05-16T05:34:03.855Z,45.00
2019-05-16T05:35:03.993Z,45.00
2019-05-16T05:36:04.162Z,50.62
2019-05-16T05:37:04.315Z,56.25
2019-05-16T05:38:04.454Z,61.88
2019-05-16T05:39:11.717Z,61.88
2019-05-16T05:40:06.762Z,67.50
2019-05-16T05:41:04.853Z,67.50
2019-05-16T05:42:06.007Z,73.12
2019-05-16T05:43:05.119Z,73.12
2019-05-16T05:44:05.293Z,73.12
2019-05-16T05:45:05.479Z,73.12
2019-05-16T05:46:05.602Z,78.75
2019-05-16T05:47:05.787Z,78.75
2019-05-16T05:48:05.964Z,78.75
2019-05-16T05:49:06.137Z,73.12
2019-05-16T05:50:06.293Z,67.50
2019-05-16T05:51:06.468Z,61.88
2019-05-16T05:52:06.619Z,56.25
2019-05-16T05:53:06.781Z,56.25
2019-05-16T05:54:06.963Z,56.25
2019-05-16T05:55:07.113Z,56.25
2019-05-16T05:56:07.306Z,56.25
2019-05-16T05:57:09.811Z,56.25
2019-05-16T05:58:09.902Z,56.25
2019-05-16T05:59:07.770Z,56.25
2019-05-16T06:00:09.931Z,56.25
2019-05-16T06:01:10.852Z,56.25
2019-05-16T06:02:11.045Z,56.25
2019-05-16T06:03:10.545Z,61.88
2019-05-16T06:04:10.568Z,67.50
2019-05-16T06:05:10.553Z,67.50
2019-05-16T06:06:10.601Z,73.12
2019-05-16T06:07:10.202Z,78.75
2019-05-16T06:08:10.672Z,78.75
2019-05-16T06:09:24.853Z,78.75
2019-05-16T06:10:11.512Z,84.38
2019-05-16T06:11:10.737Z,84.38
2019-05-16T06:12:10.522Z,84.38
2019-05-16T06:13:11.215Z,84.38
2019-05-16T06:14:11.238Z,90.00
2019-05-16T06:15:12.928Z,90.00
2019-05-16T06:16:11.491Z,95.62
2019-05-16T06:17:11.419Z,101.25
2019-05-16T06:18:11.818Z,101.25
2019-05-16T06:19:11.260Z,101.25
2019-05-16T06:20:14.534Z,101.25
2019-05-16T06:21:12.392Z,101.25
2019-05-16T06:22:11.554Z,101.25
2019-05-16T06:23:11.764Z,101.25
2019-05-16T06:24:11.923Z,106.88
2019-05-16T06:25:13.755Z,106.88
2019-05-16T06:26:13.347Z,112.50
2019-05-16T06:27:12.508Z,118.12
2019-05-16T06:28:12.689Z,118.12
2019-05-16T06:29:12.919Z,123.75
2019-05-16T06:30:13.132Z,123.75
2019-05-16T06:31:14.460Z,129.38
2019-05-16T06:32:14.499Z,140.62
2019-05-16T06:33:13.643Z,140.62
2019-05-16T06:34:15.209Z,146.25
2019-05-16T06:35:15.042Z,151.88
2019-05-16T06:36:14.194Z,163.12
2019-05-16T06:37:14.408Z,168.75
2019-05-16T06:38:14.578Z,180.00
2019-05-16T06:39:14.769Z,185.62
2019-05-16T06:40:15.004Z,196.88
2019-05-16T06:41:15.175Z,208.12
2019-05-16T06:42:15.318Z,208.12
2019-05-16T06:43:34.380Z,219.38
2019-05-16T06:44:15.674Z,230.62
2019-05-16T06:45:15.834Z,236.25
2019-05-16T06:46:15.984Z,247.50
2019-05-16T06:47:19.893Z,253.12
2019-05-16T06:48:20.802Z,258.75
2019-05-16T06:49:16.402Z,281.25
2019-05-16T06:50:16.567Z,303.75
2019-05-16T06:51:16.748Z,309.38
2019-05-16T06:52:16.955Z,315.00
2019-05-16T06:53:17.142Z,320.62
2019-05-16T06:54:17.325Z,326.25
2019-05-16T06:55:17.518Z,326.25
2019-05-16T06:56:19.912Z,309.38
2019-05-16T06:57:17.920Z,303.75
2019-05-16T06:58:21.814Z,298.12
2019-05-16T06:59:20.184Z,286.88
2019-05-16T07:00:20.866Z,286.88
2019-05-16T07:01:20.902Z,281.25
2019-05-16T07:02:27.742Z,281.25
2019-05-16T07:03:21.040Z,286.88
2019-05-16T07:04:20.255Z,286.88
2019-05-16T07:05:20.866Z,292.50
2019-05-16T07:06:45.424Z,286.88
2019-05-16T07:07:21.758Z,286.88
2019-05-16T07:08:20.673Z,286.88
2019-05-16T07:09:21.037Z,292.50
2019-05-16T07:10:20.495Z,292.50
2019-05-16T07:11:21.327Z,292.50
2019-05-16T07:12:20.433Z,292.50
2019-05-16T07:13:20.569Z,292.50
2019-05-16T07:14:22.799Z,292.50
2019-05-16T07:15:21.883Z,298.12
2019-05-16T07:16:21.021Z,298.12
2019-05-16T07:17:21.228Z,292.50
2019-05-16T07:18:21.513Z,298.12
2019-05-16T07:19:21.575Z,292.50
2019-05-16T07:20:21.752Z,298.12
2019-05-16T07:21:21.917Z,298.12
2019-05-16T07:22:22.053Z,303.75
2019-05-16T07:23:23.216Z,303.75
2019-05-16T07:24:22.341Z,303.75
2019-05-16T07:25:22.531Z,298.12
2019-05-16T07:26:22.705Z,298.12
2019-05-16T07:27:22.909Z,292.50
2019-05-16T07:28:23.071Z,286.88
2019-05-16T07:29:23.249Z,303.75
2019-05-16T07:30:23.413Z,320.62
2019-05-16T07:31:23.566Z,331.88
2019-05-16T07:32:23.719Z,326.25
2019-05-16T07:33:23.945Z,320.62
2019-05-16T07:34:24.110Z,331.88
2019-05-16T07:35:24.253Z,337.50
2019-05-16T07:36:24.397Z,348.75
2019-05-16T07:37:24.590Z,354.38
2019-05-16T07:38:24.785Z,348.75
2019-05-16T07:39:24.977Z,331.88
2019-05-16T07:40:26.995Z,315.00
2019-05-16T07:41:26.297Z,320.62
2019-05-16T07:42:25.446Z,315.00
2019-05-16T07:43:25.619Z,309.38
2019-05-16T07:44:25.802Z,298.12
2019-05-16T07:45:26.017Z,298.12
2019-05-16T07:46:26.239Z,286.88
2019-05-16T07:47:26.432Z,286.88
2019-05-16T07:48:26.614Z,292.50
2019-05-16T07:49:26.806Z,320.62
2019-05-16T07:50:26.980Z,331.88
2019-05-16T07:51:27.201Z,337.50
2019-05-16T07:52:27.392Z,337.50
2019-05-16T07:53:27.576Z,326.25
2019-05-16T07:54:34.119Z,315.00
2019-05-16T07:55:30.724Z,303.75
2019-05-16T07:56:30.703Z,303.75
2019-05-16T07:57:30.461Z,309.38
2019-05-16T07:58:31.059Z,298.12
2019-05-16T07:59:29.956Z,292.50
2019-05-16T08:00:47.882Z,286.88
2019-05-16T08:01:31.064Z,275.62
2019-05-16T08:02:31.263Z,247.50
2019-05-16T08:03:30.583Z,225.00
2019-05-16T08:04:30.627Z,213.75
2019-05-16T08:05:30.432Z,213.75
2019-05-16T08:06:33.987Z,219.38
2019-05-16T08:07:33.202Z,219.38
2019-05-16T08:08:31.696Z,241.88
2019-05-16T08:09:31.361Z,247.50
2019-05-16T08:10:37.927Z,258.75
2019-05-16T08:11:32.673Z,264.38
2019-05-16T08:12:33.026Z,275.62
2019-05-16T08:13:31.949Z,281.25
2019-05-16T08:14:34.939Z,275.62
2019-05-16T08:15:31.311Z,258.75
2019-05-16T08:16:31.506Z,247.50
2019-05-16T08:17:31.734Z,247.50
2019-05-16T08:18:31.944Z,253.12
2019-05-16T08:19:32.133Z,264.38
2019-05-16T08:20:32.324Z,275.62
2019-05-16T08:21:32.518Z,270.00
2019-05-16T08:22:32.704Z,264.38
2019-05-16T08:23:32.919Z,264.38
2019-05-16T08:24:36.058Z,264.38
2019-05-16T08:25:34.296Z,253.12
2019-05-16T08:26:38.807Z,236.25
2019-05-16T08:27:35.590Z,230.62
2019-05-16T08:28:33.736Z,230.62
2019-05-16T08:29:33.925Z,236.25
2019-05-16T08:30:34.099Z,230.62
2019-05-16T08:31:34.305Z,225.00
2019-05-16T08:32:34.487Z,213.75
2019-05-16T08:33:34.759Z,208.12
2019-05-16T08:34:34.825Z,202.50
2019-05-16T08:35:35.026Z,191.25
2019-05-16T08:36:35.218Z,191.25
2019-05-16T08:37:42.570Z,196.88
2019-05-16T08:38:37.584Z,208.12
2019-05-16T08:39:35.725Z,219.38
2019-05-16T08:41:01.074Z,230.62
2019-05-16T08:41:38.067Z,241.88
2019-05-16T08:42:36.203Z,253.12
2019-05-16T08:43:36.425Z,264.38
2019-05-16T08:44:36.642Z,298.12
2019-05-16T08:45:36.827Z,331.88
2019-05-16T08:46:37.012Z,354.38
2019-05-16T08:47:37.200Z,382.50
2019-05-16T08:48:37.392Z,421.88
2019-05-16T08:49:37.576Z,450.00
2019-05-16T08:50:41.117Z,489.38
2019-05-16T08:51:37.961Z,483.75
2019-05-16T08:52:38.136Z,410.62
2019-05-16T08:53:43.025Z,371.25
2019-05-16T08:54:43.711Z,354.38
2019-05-16T08:55:43.004Z,371.25
2019-05-16T08:56:43.791Z,393.75
2019-05-16T08:57:40.958Z,405.00
2019-05-16T08:58:41.009Z,410.62
2019-05-16T08:59:41.179Z,405.00
2019-05-16T09:00:41.871Z,388.12
2019-05-16T09:01:50.780Z,376.88
2019-05-16T09:02:42.352Z,382.50
2019-05-16T09:03:41.745Z,421.88
2019-05-16T09:04:44.604Z,416.25
2019-05-16T09:05:42.837Z,427.50
2019-05-16T09:06:42.596Z,551.25
2019-05-16T09:07:41.831Z,506.25
2019-05-16T09:08:40.988Z,534.38
2019-05-16T09:09:48.474Z,590.62
2019-05-16T09:10:51.661Z,669.38
2019-05-16T09:11:45.816Z,888.75
2019-05-16T09:12:42.724Z,1209.38
2019-05-16T09:13:41.911Z,1890.00
2019-05-16T09:14:42.094Z,2238.75
2019-05-16T09:15:42.262Z,2655.00
2019-05-16T09:16:42.566Z,2508.75
2019-05-16T09:17:42.632Z,2227.50
2019-05-16T09:18:45.791Z,1434.38
2019-05-16T09:19:44.000Z,1288.12
2019-05-16T09:20:43.151Z,933.75
2019-05-16T09:21:43.354Z,686.25
2019-05-16T09:22:43.557Z,720.00
2019-05-16T09:23:43.881Z,939.38
2019-05-16T09:24:43.911Z,765.00
2019-05-16T09:25:44.097Z,736.88
2019-05-16T09:26:47.183Z,703.12
2019-05-16T09:27:46.885Z,793.12
2019-05-16T09:28:47.817Z,821.25
2019-05-16T09:29:47.115Z,855.00
2019-05-16T09:30:46.872Z,1861.88
2019-05-16T09:32:03.074Z,821.25
2019-05-16T09:32:48.127Z,635.62
2019-05-16T09:33:47.377Z,714.38
2019-05-16T09:34:47.890Z,680.62
2019-05-16T09:35:47.908Z,714.38
2019-05-16T09:36:48.131Z,613.12
2019-05-16T09:37:47.612Z,675.00
2019-05-16T09:38:48.490Z,613.12
2019-05-16T09:39:48.180Z,810.00
2019-05-16T09:40:48.062Z,1102.50
2019-05-16T09:41:54.497Z,877.50
2019-05-16T09:42:48.945Z,714.38
2019-05-16T09:43:48.633Z,607.50
2019-05-16T09:44:48.304Z,562.50
2019-05-16T09:45:47.649Z,613.12
2019-05-16T09:46:47.599Z,556.88
2019-05-16T09:47:48.618Z,517.50
2019-05-16T09:48:48.921Z,466.88
2019-05-16T09:49:48.063Z,450.00
2019-05-16T09:50:48.282Z,483.75
2019-05-16T09:51:48.490Z,511.88
2019-05-16T09:52:48.688Z,911.25
2019-05-16T09:53:48.912Z,601.88
2019-05-16T09:54:49.110Z,624.38
2019-05-16T09:55:49.319Z,708.75
2019-05-16T09:56:49.482Z,849.38
2019-05-16T09:57:49.669Z,849.38
2019-05-16T09:58:50.877Z,776.25
2019-05-16T09:59:50.041Z,691.88
2019-05-16T10:00:50.249Z,652.50
2019-05-16T10:01:50.434Z,601.88
2019-05-16T10:02:50.662Z,590.62
2019-05-16T10:03:50.770Z,573.75
2019-05-16T10:04:50.975Z,551.25
2019-05-16T10:05:51.170Z,607.50
2019-05-16T10:06:51.408Z,590.62
2019-05-16T10:07:51.596Z,568.12
2019-05-16T10:08:51.819Z,523.12
2019-05-16T10:09:52.054Z,472.50
2019-05-16T10:10:52.258Z,455.62
2019-05-16T10:12:07.194Z,489.38
2019-05-16T10:12:54.596Z,579.38
2019-05-16T10:13:52.748Z,663.75
2019-05-16T10:14:52.991Z,680.62
2019-05-16T10:15:53.182Z,742.50
2019-05-16T10:16:53.363Z,680.62
2019-05-16T10:17:53.517Z,691.88
2019-05-16T10:18:53.694Z,607.50
2019-05-16T10:19:56.540Z,511.88
2019-05-16T10:20:58.980Z,489.38
2019-05-16T10:21:59.908Z,506.25
2019-05-16T10:22:57.932Z,466.88
2019-05-16T10:23:56.386Z,450.00
2019-05-16T10:24:57.138Z,455.62
2019-05-16T10:25:56.801Z,483.75
2019-05-16T10:26:57.031Z,517.50
2019-05-16T10:27:55.205Z,461.25
2019-05-16T10:28:57.855Z,483.75
2019-05-16T10:30:00.596Z,478.12
2019-05-16T10:30:57.801Z,421.88
2019-05-16T10:31:57.042Z,376.88
2019-05-16T10:32:57.505Z,354.38
2019-05-16T10:33:58.102Z,343.12
2019-05-16T10:34:57.378Z,343.12
2019-05-16T10:35:58.041Z,331.88
2019-05-16T10:36:57.773Z,320.62
2019-05-16T10:37:57.635Z,337.50
2019-05-16T10:38:59.137Z,348.75
2019-05-16T10:39:59.985Z,365.62
2019-05-16T10:40:58.537Z,388.12
2019-05-16T10:41:57.653Z,399.38
2019-05-16T10:42:58.086Z,421.88
2019-05-16T10:43:59.053Z,466.88
2019-05-16T10:44:58.066Z,596.25
2019-05-16T10:45:58.305Z,731.25
2019-05-16T10:46:58.456Z,770.62
2019-05-16T10:47:58.640Z,624.38
2019-05-16T10:48:58.831Z,641.25
2019-05-16T10:49:59.020Z,528.75
2019-05-16T10:50:59.254Z,528.75
2019-05-16T10:51:59.421Z,607.50
2019-05-16T10:53:22.549Z,646.88
2019-05-16T10:54:09.739Z,1074.38
2019-05-16T10:55:02.651Z,956.25
2019-05-16T10:56:01.256Z,855.00
2019-05-16T10:57:00.355Z,646.88
2019-05-16T10:58:00.461Z,624.38
2019-05-16T10:59:37.736Z,568.12
2019-05-16T11:00:13.036Z,478.12
2019-05-16T11:01:19.436Z,427.50
2019-05-16T11:02:03.113Z,382.50
2019-05-16T11:03:01.244Z,343.12
2019-05-16T11:04:01.323Z,320.62
2019-05-16T11:05:20.547Z,303.75
2019-05-16T11:06:06.731Z,309.38
2019-05-16T11:07:03.948Z,320.62
2019-05-16T11:08:03.328Z,331.88
2019-05-16T11:09:02.292Z,331.88
2019-05-16T11:10:03.623Z,331.88
2019-05-16T11:11:03.638Z,303.75
2019-05-16T11:12:02.838Z,286.88
2019-05-16T11:13:02.903Z,275.62
2019-05-16T11:14:03.113Z,275.62
2019-05-16T11:15:03.282Z,275.62
2019-05-16T11:16:03.451Z,298.12
2019-05-16T11:17:03.689Z,320.62
2019-05-16T11:18:03.770Z,326.25
2019-05-16T11:19:14.469Z,331.88
2019-05-16T11:20:06.168Z,354.38
2019-05-16T11:21:04.313Z,399.38
2019-05-16T11:22:04.543Z,393.75
2019-05-16T11:23:07.679Z,360.00
2019-05-16T11:24:11.713Z,360.00
2019-05-16T11:25:20.229Z,382.50
2019-05-16T11:26:07.222Z,388.12
2019-05-16T11:27:07.430Z,388.12
2019-05-16T11:28:07.389Z,382.50
2019-05-16T11:29:07.467Z,360.00
2019-05-16T11:30:07.541Z,354.38
2019-05-16T11:31:07.609Z,348.75
2019-05-16T11:32:07.198Z,343.12
2019-05-16T11:33:07.593Z,315.00
2019-05-16T11:34:07.533Z,315.00
2019-05-16T11:35:07.318Z,326.25
2019-05-16T11:36:12.372Z,337.50
2019-05-16T11:37:08.056Z,337.50
2019-05-16T11:38:07.435Z,315.00
2019-05-16T11:39:08.562Z,292.50
2019-05-16T11:40:08.548Z,275.62
2019-05-16T11:41:07.691Z,264.38
2019-05-16T11:42:08.270Z,275.62
2019-05-16T11:43:17.463Z,275.62
2019-05-16T11:44:10.266Z,286.88
2019-05-16T11:45:09.875Z,309.38
2019-05-16T11:46:09.595Z,331.88
2019-05-16T11:47:08.699Z,337.50
2019-05-16T11:48:08.863Z,348.75
2019-05-16T11:49:09.008Z,343.12
2019-05-16T11:50:10.184Z,360.00
2019-05-16T11:51:09.340Z,360.00
2019-05-16T11:52:09.511Z,348.75
2019-05-16T11:53:09.683Z,360.00
2019-05-16T11:54:09.859Z,371.25
2019-05-16T11:55:10.074Z,393.75
2019-05-16T11:56:10.238Z,421.88
2019-05-16T11:57:10.437Z,466.88
2019-05-16T11:58:10.607Z,562.50
2019-05-16T11:59:10.789Z,579.38
2019-05-16T12:00:10.946Z,523.12
2019-05-16T12:01:11.157Z,455.62
2019-05-16T12:02:11.359Z,376.88
2019-05-16T12:03:11.547Z,337.50
2019-05-16T12:04:11.712Z,303.75
2019-05-16T12:05:11.902Z,292.50
2019-05-16T12:06:12.175Z,275.62
2019-05-16T12:07:12.263Z,258.75
2019-05-16T12:08:12.487Z,236.25
2019-05-16T12:09:12.684Z,213.75
2019-05-16T12:10:12.864Z,202.50
2019-05-16T12:11:13.067Z,202.50
2019-05-16T12:12:13.270Z,208.12
2019-05-16T12:13:25.373Z,208.12
2019-05-16T12:14:16.603Z,196.88
2019-05-16T12:15:16.800Z,196.88
2019-05-16T12:16:18.506Z,202.50
2019-05-16T12:17:16.594Z,213.75
2019-05-16T12:18:17.309Z,236.25
2019-05-16T12:19:17.894Z,236.25
2019-05-16T12:20:16.706Z,253.12
2019-05-16T12:21:17.263Z,236.25
2019-05-16T12:22:18.065Z,219.38
2019-05-16T12:23:17.143Z,208.12
2019-05-16T12:24:31.713Z,196.88
2019-05-16T12:25:17.682Z,202.50
2019-05-16T12:26:17.666Z,213.75
2019-05-16T12:27:17.309Z,219.38
2019-05-16T12:28:17.292Z,219.38
2019-05-16T12:29:17.295Z,241.88
2019-05-16T12:30:17.829Z,281.25
2019-05-16T12:31:17.731Z,309.38
2019-05-16T12:32:17.131Z,309.38
2019-05-16T12:33:18.921Z,292.50
2019-05-16T12:34:18.310Z,281.25
2019-05-16T12:35:17.789Z,270.00
2019-05-16T12:36:18.552Z,286.88
2019-05-16T12:37:17.736Z,303.75
2019-05-16T12:38:17.886Z,303.75
2019-05-16T12:39:18.056Z,286.88
2019-05-16T12:40:18.233Z,264.38
2019-05-16T12:41:18.467Z,270.00
2019-05-16T12:42:18.633Z,286.88
2019-05-16T12:43:18.852Z,281.25
2019-05-16T12:44:19.031Z,258.75
2019-05-16T12:45:19.221Z,230.62
2019-05-16T12:46:19.385Z,225.00
2019-05-16T12:47:19.627Z,236.25
2019-05-16T12:48:20.563Z,270.00
2019-05-16T12:49:20.953Z,303.75
2019-05-16T12:50:20.112Z,315.00
2019-05-16T12:51:20.325Z,286.88
2019-05-16T12:52:20.513Z,258.75
2019-05-16T12:53:23.524Z,253.12
2019-05-16T12:54:22.869Z,258.75
2019-05-16T12:55:21.008Z,264.38
2019-05-16T12:56:21.211Z,275.62